Hlavní strana
METAR-TAF:

METAR-TAF

Letiště :

Bessemer, Alabama, Spojené státy americké

zeměpisná šířka: 33-18-45N, zeměpisná délka: 086-55-35W, výška: 213 m

Aktuální stav počasí

Zpráva byla vytvořena před 8 minutami, v 01:32 UTC
Jihozápadní vítr 3 kt
Teplota 14°C
Vlhkost vzduchu 100%
Tlak 1020 hPa
Viditelnost: 4.0 km
Polojasno ve výšce 400 ft
Oblačno až skoro zataženo ve výšce 1000 ft
Zataženo ve výšce 1500 ft
slabý déšť, kouřmo

METAR: KEKY 190132Z AUTO 23003KT 2 1/2SM -RA BR SCT004 BKN010 OVC015 14/14 A3013 RMK AO2 RAB26 CIG 007V012 P0003

Čas: 19:40 (01:40 UTC)


TAF: chybějící

Stav a předpovědi počasí z více než 4 000 letišť (zprávy METAR a TAF).

Červené a žluté tečky na mapě představují dostupné meteorologické stanice.

Když kurzor umístíte na tečku, zobrazí se název stanice.

Pak kliknutím zobrazíte stav a předpověď počasí.

Chcete-li změnit mapu, kliknutím na zelené tlačítko se znaménkem +mapu přiblížíte, kliknutím na zelené tlačítko se znaménkem – mapu oddálíte a kliknutím na zelené šipky přejdete na sousední mapy.


METAR-TAF: